Time;durP1;ratioP1;P1;durP2;ratioP2;P2;SDS_P1;SDS_P2;PMS_P1;PMS_P2;Temp;Humidity;BMP_temperature;BMP_pressure;BME280_temperature;BME280_humidity;BME280_pressure;Samples;Min_cycle;Max_cycle;Signal;HPM_P1;HPM_P2
2022/10/22 00:00:08;;;;;;;3.90;1.50;;;11.30;98.20;;;;;;4772614;29;20050;-87
2022/10/22 00:02:36;;;;;;;3.95;1.48;;;11.30;98.20;;;;;;4772775;29;20086;-87
2022/10/22 00:05:04;;;;;;;5.30;1.38;;;11.20;98.20;;;;;;4772263;30;20055;-87
2022/10/22 00:07:31;;;;;;;5.45;1.40;;;11.20;98.20;;;;;;4772988;30;20464;-86
2022/10/22 00:09:58;;;;;;;5.18;1.48;;;11.20;98.20;;;;;;4772462;29;20078;-87
2022/10/22 00:12:26;;;;;;;7.10;1.67;;;11.20;98.20;;;;;;4772043;29;20052;-87
2022/10/22 00:14:53;;;;;;;5.80;1.58;;;11.20;98.30;;;;;;4787553;29;20481;-87
2022/10/22 00:17:20;;;;;;;6.60;1.58;;;11.20;98.30;;;;;;4765990;30;20150;-86
2022/10/22 00:19:47;;;;;;;3.70;1.27;;;11.20;98.20;;;;;;4743552;30;20075;-87
2022/10/22 00:22:14;;;;;;;4.15;1.58;;;11.30;98.20;;;;;;4757227;30;20051;-87
2022/10/22 00:24:41;;;;;;;4.93;1.27;;;11.30;98.10;;;;;;4772101;29;20139;-87
2022/10/22 00:27:10;;;;;;;3.33;1.20;;;11.30;98.10;;;;;;4771886;29;20143;-87
2022/10/22 00:29:37;;;;;;;4.28;1.40;;;11.30;98.10;;;;;;4786667;29;20044;-86
2022/10/22 00:32:05;;;;;;;4.57;1.15;;;11.30;98.10;;;;;;4779006;29;20043;-86
2022/10/22 00:34:33;;;;;;;3.55;1.35;;;11.30;98.10;;;;;;4768935;29;20052;-86
2022/10/22 00:37:00;;;;;;;4.22;1.75;;;11.30;98.10;;;;;;4787331;29;20146;-86
2022/10/22 00:39:28;;;;;;;6.53;1.80;;;11.30;98.10;;;;;;4771797;29;20109;-86
2022/10/22 00:41:56;;;;;;;4.10;1.63;;;11.30;98.00;;;;;;4771842;29;20052;-86
2022/10/22 00:45:01;;;;;;;5.20;1.42;;;11.20;98.00;;;;;;4771967;29;20062;-86
2022/10/22 00:47:32;;;;;;;2.38;1.02;;;11.20;98.00;;;;;;4756818;30;20055;-87
2022/10/22 00:50:00;;;;;;;3.42;1.60;;;11.20;98.10;;;;;;4771544;30;20058;-87
2022/10/22 00:52:28;;;;;;;4.53;1.35;;;11.20;98.00;;;;;;4776345;29;20455;-87
2022/10/22 00:54:56;;;;;;;2.53;1.05;;;11.30;98.10;;;;;;4786448;29;20044;-86
2022/10/22 00:57:23;;;;;;;4.18;1.10;;;11.30;98.00;;;;;;4774506;29;20109;-86
2022/10/22 00:59:50;;;;;;;3.28;1.33;;;11.30;98.00;;;;;;4770270;29;20500;-86
2022/10/22 01:02:17;;;;;;;3.50;1.33;;;11.30;98.00;;;;;;4785752;29;20159;-86
2022/10/22 01:04:44;;;;;;;3.25;1.10;;;11.30;97.90;;;;;;4785744;29;20100;-86
2022/10/22 01:07:17;;;;;;;4.18;1.55;;;11.20;97.90;;;;;;4785569;29;20110;-86
2022/10/22 01:10:18;;;;;;;3.95;1.00;;;11.20;98.00;;;;;;4786047;29;20138;-86
2022/10/22 01:13:04;;;;;;;2.63;1.30;;;11.20;97.90;;;;;;4770889;29;20134;-86
2022/10/22 01:15:42;;;;;;;3.88;1.05;;;11.10;98.00;;;;;;4785948;29;20126;-87
2022/10/22 01:18:30;;;;;;;6.80;1.52;;;11.10;98.10;;;;;;4786046;29;20086;-87
2022/10/22 01:21:15;;;;;;;3.50;1.80;;;11.10;98.00;;;;;;4769787;30;20039;-86
2022/10/22 01:24:04;;;;;;;3.22;1.30;;;11.10;98.00;;;;;;4761926;30;20417;-87
2022/10/22 01:26:46;;;;;;;2.50;0.82;;;11.20;98.00;;;;;;4769703;30;20478;-87
2022/10/22 01:29:39;;;;;;;4.93;1.20;;;11.20;98.00;;;;;;4771125;30;20079;-86
2022/10/22 01:32:16;;;;;;;4.25;1.10;;;11.10;98.00;;;;;;4760914;29;20055;-86
2022/10/22 01:34:48;;;;;;;2.38;0.90;;;11.10;98.00;;;;;;4785609;29;20040;-86
2022/10/22 01:37:17;;;;;;;5.15;1.50;;;11.00;98.00;;;;;;4770716;29;20060;-85
2022/10/22 01:39:46;;;;;;;3.05;1.17;;;11.00;98.00;;;;;;4785772;29;20494;-86
2022/10/22 01:42:13;;;;;;;4.47;1.17;;;11.00;98.00;;;;;;4771043;29;20138;-85
2022/10/22 01:44:41;;;;;;;2.97;0.80;;;11.00;98.00;;;;;;4770617;29;20467;-85
2022/10/22 01:47:39;;;;;;;2.53;1.30;;;10.90;98.00;;;;;;4785667;29;20083;-85
2022/10/22 01:50:48;;;;;;;2.13;1.20;;;10.90;98.00;;;;;;4770614;29;20048;-85
2022/10/22 01:53:27;;;;;;;2.13;0.90;;;10.80;98.00;;;;;;4777773;29;20059;-86
2022/10/22 01:56:15;;;;;;;1.98;0.80;;;10.80;98.10;;;;;;4770286;30;20048;-85
2022/10/22 01:59:03;;;;;;;5.70;0.88;;;10.80;98.10;;;;;;4770067;29;20063;-85
2022/10/22 02:01:54;;;;;;;4.43;1.40;;;10.80;98.10;;;;;;4764070;30;20194;-85
2022/10/22 02:04:41;;;;;;;2.40;0.80;;;10.70;98.10;;;;;;4770579;29;20523;-86
2022/10/22 02:07:12;;;;;;;2.08;0.85;;;10.70;98.10;;;;;;4785216;29;20567;-85
2022/10/22 02:09:40;;;;;;;4.90;0.90;;;10.70;98.10;;;;;;4770405;29;20087;-86
2022/10/22 02:12:09;;;;;;;3.10;0.68;;;10.70;98.10;;;;;;4784727;29;20055;-86
2022/10/22 02:14:40;;;;;;;2.40;0.80;;;10.60;98.10;;;;;;4770518;29;20087;-85
2022/10/22 02:17:14;;;;;;;1.75;0.73;;;10.60;98.10;;;;;;4769706;30;20055;-86
2022/10/22 02:19:49;;;;;;;3.05;1.08;;;10.60;98.10;;;;;;4784806;29;20127;-86
2022/10/22 02:22:17;;;;;;;2.53;0.80;;;10.60;98.40;;;;;;4770285;30;20052;-85
2022/10/22 02:24:44;;;;;;;2.42;0.63;;;10.60;98.10;;;;;;4785239;29;20056;-86
2022/10/22 02:27:29;;;;;;;4.60;0.98;;;10.60;98.10;;;;;;4769896;29;20151;-84
2022/10/22 02:30:17;;;;;;;1.20;0.52;;;10.60;98.10;;;;;;4769616;30;20519;-85
2022/10/22 02:32:50;;;;;;;2.40;0.75;;;10.60;98.10;;;;;;4768952;29;20109;-86
2022/10/22 02:35:21;;;;;;;2.08;1.00;;;10.50;98.20;;;;;;4784718;29;20090;-85
2022/10/22 02:37:50;;;;;;;2.10;0.85;;;10.60;98.20;;;;;;4763028;30;20163;-85
2022/10/22 02:40:17;;;;;;;1.92;0.95;;;10.60;98.20;;;;;;4769868;30;20051;-85
2022/10/22 02:42:47;;;;;;;3.50;0.52;;;10.60;98.20;;;;;;4777402;29;20052;-85
2022/10/22 02:45:16;;;;;;;1.08;0.63;;;10.60;98.10;;;;;;4769778;29;20048;-86
2022/10/22 02:47:43;;;;;;;2.13;1.00;;;10.60;98.10;;;;;;4769670;30;20046;-86
2022/10/22 02:50:10;;;;;;;3.10;0.68;;;10.50;98.10;;;;;;4767401;30;20135;-86
2022/10/22 02:52:37;;;;;;;2.00;0.90;;;10.60;98.10;;;;;;4784531;29;20142;-86
2022/10/22 02:55:15;;;;;;;2.50;0.98;;;10.60;98.10;;;;;;4784433;29;20083;-86
2022/10/22 02:58:29;;;;;;;3.45;0.57;;;10.60;98.10;;;;;;4771000;30;20066;-86
2022/10/22 03:00:56;;;;;;;1.65;0.77;;;10.50;98.10;;;;;;4769161;30;20074;-86
2022/10/22 03:03:23;;;;;;;2.05;0.82;;;10.50;98.30;;;;;;4762982;30;20502;-85
2022/10/22 03:05:53;;;;;;;1.33;0.70;;;10.50;98.10;;;;;;4769147;29;20052;-86
2022/10/22 03:08:20;;;;;;;3.22;0.70;;;10.50;98.10;;;;;;4769551;29;20044;-86
2022/10/22 03:10:47;;;;;;;3.22;0.93;;;10.60;98.10;;;;;;4769398;29;20048;-85
2022/10/22 03:13:14;;;;;;;1.95;0.65;;;10.60;98.10;;;;;;4769389;29;20086;-85
2022/10/22 03:15:41;;;;;;;3.33;0.93;;;10.50;98.00;;;;;;4775137;29;20054;-85
2022/10/22 03:18:08;;;;;;;3.30;0.80;;;10.50;98.00;;;;;;4783726;29;20074;-85
2022/10/22 03:20:35;;;;;;;1.60;0.65;;;10.50;98.00;;;;;;4783840;29;20100;-85
2022/10/22 03:23:02;;;;;;;1.73;0.75;;;10.50;98.00;;;;;;4783325;29;20146;-86
2022/10/22 03:25:33;;;;;;;2.28;0.70;;;10.50;98.00;;;;;;4769139;29;20146;-86
2022/10/22 03:28:06;;;;;;;1.45;0.70;;;10.50;98.00;;;;;;4769001;29;20180;-87
2022/10/22 03:30:33;;;;;;;1.83;0.90;;;10.50;98.00;;;;;;4768997;29;20172;-86
2022/10/22 03:33:00;;;;;;;4.65;0.75;;;10.50;98.00;;;;;;4783956;29;20055;-85
2022/10/22 03:35:27;;;;;;;1.90;0.90;;;10.50;98.00;;;;;;4783873;29;20517;-86
2022/10/22 03:37:54;;;;;;;2.13;0.65;;;10.50;98.00;;;;;;4783660;29;20056;-85
2022/10/22 03:40:22;;;;;;;1.42;0.68;;;10.40;98.00;;;;;;4783364;29;20523;-85
2022/10/22 03:42:49;;;;;;;1.30;0.60;;;10.40;98.00;;;;;;4754309;29;20058;-84
2022/10/22 03:45:15;;;;;;;2.35;0.68;;;10.40;98.00;;;;;;4769292;30;20135;-86
2022/10/22 03:47:43;;;;;;;1.38;0.60;;;10.40;98.10;;;;;;4768835;29;20505;-86
2022/10/22 03:50:10;;;;;;;2.22;0.60;;;10.40;98.10;;;;;;4768532;29;20055;-86
2022/10/22 03:52:38;;;;;;;3.15;0.70;;;10.40;98.30;;;;;;4768190;29;20107;-85
2022/10/22 03:55:08;;;;;;;1.30;0.63;;;10.30;98.10;;;;;;4768873;29;20048;-85
2022/10/22 03:57:36;;;;;;;3.00;0.90;;;10.30;98.10;;;;;;4768518;29;20059;-85
2022/10/22 04:00:05;;;;;;;1.67;0.50;;;10.30;98.10;;;;;;4768988;29;20413;-87
2022/10/22 04:02:32;;;;;;;1.83;0.70;;;10.30;98.10;;;;;;4784424;30;20052;-88
2022/10/22 04:04:59;;;;;;;3.08;0.60;;;10.30;98.10;;;;;;4769238;29;20083;-86
2022/10/22 04:07:26;;;;;;;1.90;0.82;;;10.30;98.10;;;;;;4769253;30;20092;-87
2022/10/22 04:09:53;;;;;;;1.60;0.70;;;10.30;98.10;;;;;;4783584;29;20099;-87
2022/10/22 04:12:20;;;;;;;2.55;0.73;;;10.30;98.10;;;;;;4768439;29;20055;-87
2022/10/22 04:14:47;;;;;;;7.68;1.00;;;10.30;98.10;;;;;;4769303;29;20083;-86
2022/10/22 04:17:14;;;;;;;5.22;0.95;;;10.30;98.10;;;;;;4769084;29;20448;-86
2022/10/22 04:19:41;;;;;;;1.80;0.60;;;10.30;98.10;;;;;;4784464;29;20075;-90
2022/10/22 04:22:08;;;;;;;3.65;0.63;;;10.30;98.10;;;;;;4769261;30;20062;-91
2022/10/22 04:24:35;;;;;;;1.85;0.68;;;10.20;98.10;;;;;;4784594;29;20056;-90
2022/10/22 04:27:03;;;;;;;1.63;0.90;;;10.20;98.10;;;;;;4769479;29;20505;-91
2022/10/22 04:29:30;;;;;;;1.58;0.70;;;10.20;98.10;;;;;;4769076;29;20051;-86
2022/10/22 04:31:57;;;;;;;1.77;0.82;;;10.20;98.10;;;;;;4783386;30;20048;-87
2022/10/22 04:34:27;;;;;;;7.00;1.08;;;10.20;98.00;;;;;;4769301;29;20054;-87
2022/10/22 04:36:54;;;;;;;2.42;0.73;;;10.20;98.00;;;;;;4775489;29;20062;-85
2022/10/22 04:39:24;;;;;;;2.30;1.20;;;10.20;98.00;;;;;;4783420;29;20142;-84
2022/10/22 04:41:51;;;;;;;3.40;0.77;;;10.10;98.30;;;;;;4771333;29;20079;-84
2022/10/22 04:44:18;;;;;;;1.40;0.60;;;10.20;98.10;;;;;;4771999;30;20043;-84
2022/10/22 04:46:45;;;;;;;3.22;0.95;;;10.10;98.10;;;;;;4771195;29;20052;-84
2022/10/22 04:49:13;;;;;;;1.98;0.75;;;10.10;98.00;;;;;;4785999;29;20130;-85
2022/10/22 04:51:40;;;;;;;1.50;0.70;;;10.10;98.10;;;;;;4771308;29;20048;-84
2022/10/22 04:54:07;;;;;;;4.40;0.80;;;10.10;98.10;;;;;;4771077;29;20079;-85
2022/10/22 04:56:34;;;;;;;1.50;0.80;;;10.10;98.10;;;;;;4771037;30;20134;-85
2022/10/22 04:59:06;;;;;;;1.90;0.70;;;10.10;98.10;;;;;;4786015;29;20063;-85
2022/10/22 05:01:35;;;;;;;1.08;0.50;;;10.10;98.10;;;;;;4786014;29;20048;-85
2022/10/22 05:04:12;;;;;;;2.08;0.60;;;10.10;98.10;;;;;;4785944;29;20494;-85
2022/10/22 05:06:39;;;;;;;1.40;0.60;;;10.10;98.10;;;;;;4785572;29;20063;-84
2022/10/22 05:09:10;;;;;;;1.83;0.90;;;10.10;98.10;;;;;;4770819;29;20114;-85
2022/10/22 05:11:45;;;;;;;1.35;0.65;;;10.10;98.10;;;;;;4785409;29;20463;-84
2022/10/22 05:14:12;;;;;;;2.47;0.57;;;10.10;98.10;;;;;;4785474;29;20070;-84
2022/10/22 05:16:39;;;;;;;2.28;0.50;;;10.10;98.10;;;;;;4770653;30;20071;-84
2022/10/22 05:19:07;;;;;;;2.05;0.70;;;10.00;98.00;;;;;;4770564;29;20143;-86
2022/10/22 05:21:36;;;;;;;1.73;0.70;;;10.10;98.10;;;;;;4770817;29;20047;-87
2022/10/22 05:24:03;;;;;;;1.35;0.60;;;10.00;98.00;;;;;;4785944;29;20124;-86
2022/10/22 05:26:33;;;;;;;1.10;0.60;;;10.00;98.00;;;;;;4770043;29;20567;-85
2022/10/22 05:29:00;;;;;;;2.78;0.63;;;10.00;98.00;;;;;;4770379;29;20056;-85
2022/10/22 05:31:27;;;;;;;0.98;0.60;;;10.00;98.00;;;;;;4770402;30;20101;-86
2022/10/22 05:33:55;;;;;;;1.75;0.70;;;10.00;98.00;;;;;;4770385;29;20071;-85
2022/10/22 05:36:22;;;;;;;2.03;0.50;;;10.00;98.00;;;;;;4770347;29;20581;-85
2022/10/22 05:38:49;;;;;;;2.00;0.80;;;10.00;98.00;;;;;;4770876;30;20087;-86
2022/10/22 05:41:21;;;;;;;1.63;0.65;;;10.00;98.00;;;;;;4784817;29;20134;-85
2022/10/22 05:43:49;;;;;;;1.35;0.60;;;10.00;98.00;;;;;;4759150;30;20082;-87
2022/10/22 05:46:24;;;;;;;2.38;0.80;;;10.00;98.10;;;;;;4769797;29;20055;-85
2022/10/22 05:48:55;;;;;;;2.83;0.70;;;9.90;98.00;;;;;;4771274;30;20047;-84
2022/10/22 05:51:23;;;;;;;1.02;0.52;;;9.90;98.00;;;;;;4784370;29;20105;-84
2022/10/22 05:53:53;;;;;;;2.13;0.70;;;9.90;98.10;;;;;;4784868;29;20048;-83
2022/10/22 05:56:24;;;;;;;1.90;0.70;;;9.90;98.10;;;;;;4784863;29;20056;-84
2022/10/22 05:58:51;;;;;;;2.10;0.60;;;9.90;98.10;;;;;;4769729;30;20139;-84
2022/10/22 06:01:20;;;;;;;2.17;0.70;;;9.90;98.00;;;;;;4770130;30;20059;-85
2022/10/22 06:03:48;;;;;;;0.93;0.43;;;9.90;98.00;;;;;;4769727;30;20048;-85
2022/10/22 06:06:29;;;;;;;2.10;0.55;;;9.90;98.00;;;;;;4769966;29;20394;-85
2022/10/22 06:09:17;;;;;;;1.67;0.73;;;9.90;98.00;;;;;;4784257;29;20048;-86
2022/10/22 06:11:45;;;;;;;2.17;0.52;;;9.90;98.00;;;;;;4769648;29;20082;-85
2022/10/22 06:14:13;;;;;;;1.85;0.70;;;9.90;98.30;;;;;;4784379;29;20048;-86
2022/10/22 06:16:40;;;;;;;1.38;0.47;;;9.90;98.00;;;;;;4769756;29;20056;-86
2022/10/22 06:19:08;;;;;;;1.38;0.60;;;10.00;98.00;;;;;;4769163;29;20146;-85
2022/10/22 06:21:35;;;;;;;1.77;0.90;;;10.00;98.00;;;;;;4769426;29;20059;-86
2022/10/22 06:24:03;;;;;;;1.65;0.60;;;10.10;98.00;;;;;;4770098;29;20059;-85
2022/10/22 06:26:30;;;;;;;1.38;0.55;;;10.30;97.90;;;;;;4770369;29;20394;-86
2022/10/22 06:28:57;;;;;;;1.25;0.63;;;10.40;97.80;;;;;;4769302;30;20055;-86
2022/10/22 06:31:25;;;;;;;1.33;0.50;;;10.40;97.80;;;;;;4784078;29;20083;-85
2022/10/22 06:33:53;;;;;;;2.92;0.73;;;10.50;97.70;;;;;;4754317;29;20055;-85
2022/10/22 06:36:22;;;;;;;1.02;0.50;;;10.60;97.70;;;;;;4770318;29;20047;-85
2022/10/22 06:38:54;;;;;;;1.83;0.70;;;10.70;97.60;;;;;;4783713;30;20138;-85
2022/10/22 06:41:21;;;;;;;1.27;0.85;;;10.80;97.60;;;;;;4769306;30;20058;-85
2022/10/22 06:43:56;;;;;;;3.05;0.73;;;10.80;97.60;;;;;;4769642;29;20051;-86
2022/10/22 06:46:24;;;;;;;2.25;0.70;;;11.00;97.60;;;;;;4784067;29;20083;-85
2022/10/22 06:48:57;;;;;;;1.50;0.73;;;11.00;97.50;;;;;;4765039;30;20044;-85
2022/10/22 06:51:25;;;;;;;1.20;0.70;;;11.20;97.60;;;;;;4783395;29;20040;-85
2022/10/22 06:53:54;;;;;;;2.17;0.70;;;11.30;97.40;;;;;;4783857;29;20072;-85
2022/10/22 06:56:23;;;;;;;3.03;0.68;;;11.30;97.30;;;;;;4768939;30;20114;-85
2022/10/22 06:58:52;;;;;;;3.92;0.75;;;11.40;97.30;;;;;;4768564;29;20061;-85
2022/10/22 07:01:23;;;;;;;4.07;0.80;;;11.40;97.30;;;;;;4783752;29;20059;-86
2022/10/22 07:03:51;;;;;;;1.70;0.68;;;11.50;97.40;;;;;;4768694;29;20509;-85
2022/10/22 07:06:22;;;;;;;1.30;0.57;;;11.50;97.40;;;;;;4763020;30;20472;-85
2022/10/22 07:08:49;;;;;;;1.88;0.52;;;11.60;97.40;;;;;;4783073;29;20047;-85
2022/10/22 07:11:23;;;;;;;2.35;1.00;;;11.70;97.40;;;;;;4783672;29;20153;-86
2022/10/22 07:13:50;;;;;;;1.95;0.93;;;11.80;97.40;;;;;;4761455;30;20048;-85
2022/10/22 07:16:17;;;;;;;3.95;0.90;;;11.90;97.30;;;;;;4783611;29;20059;-86
2022/10/22 07:18:45;;;;;;;4.35;0.80;;;12.10;97.30;;;;;;4768751;29;20371;-85
2022/10/22 07:21:14;;;;;;;2.85;1.05;;;12.20;97.20;;;;;;4771822;29;20052;-86
2022/10/22 07:23:41;;;;;;;2.35;0.77;;;12.40;97.10;;;;;;4768820;29;20051;-85
2022/10/22 07:26:13;;;;;;;2.65;0.93;;;12.50;97.10;;;;;;4768779;29;20055;-85
2022/10/22 07:28:40;;;;;;;2.45;0.90;;;12.60;97.00;;;;;;4768150;29;20048;-85
2022/10/22 07:31:09;;;;;;;4.10;1.02;;;12.70;97.00;;;;;;4761316;29;20044;-85
2022/10/22 07:33:37;;;;;;;2.30;1.00;;;12.90;96.90;;;;;;4763665;30;20078;-87
2022/10/22 07:36:06;;;;;;;3.33;1.15;;;12.90;97.10;;;;;;4769780;30;20043;-86
2022/10/22 07:38:35;;;;;;;2.88;1.15;;;13.00;96.90;;;;;;4769959;30;20142;-87
2022/10/22 07:41:03;;;;;;;1.50;0.80;;;13.20;96.80;;;;;;4770795;29;20094;-87
2022/10/22 07:43:30;;;;;;;2.20;0.90;;;13.20;96.80;;;;;;4767730;30;20063;-87
2022/10/22 07:45:58;;;;;;;4.05;1.10;;;13.30;96.80;;;;;;4777560;30;20049;-87
2022/10/22 07:48:25;;;;;;;2.25;1.00;;;13.40;96.70;;;;;;4768853;29;20105;-87
2022/10/22 07:50:52;;;;;;;2.15;1.00;;;13.50;96.70;;;;;;4772450;29;20044;-85
2022/10/22 07:53:20;;;;;;;8.40;1.23;;;13.60;96.70;;;;;;4773953;29;20043;-85
2022/10/22 07:55:48;;;;;;;4.85;1.17;;;13.60;96.60;;;;;;4771028;29;20497;-85
2022/10/22 07:58:17;;;;;;;3.47;0.88;;;13.70;96.60;;;;;;4768610;29;20570;-85
2022/10/22 08:00:45;;;;;;;3.90;1.00;;;13.70;96.60;;;;;;4769060;29;20059;-86
2022/10/22 08:03:13;;;;;;;5.15;1.50;;;13.70;96.60;;;;;;4773355;30;20534;-85
2022/10/22 08:05:42;;;;;;;3.17;0.98;;;13.70;96.70;;;;;;4773044;29;20060;-87
2022/10/22 08:08:15;;;;;;;4.18;1.02;;;13.70;96.70;;;;;;4771027;29;20059;-87
2022/10/22 08:10:42;;;;;;;4.55;1.08;;;13.70;96.70;;;;;;4771241;29;20056;-85
2022/10/22 08:13:10;;;;;;;2.53;1.00;;;13.80;96.80;;;;;;4784238;29;20139;-85
2022/10/22 08:15:41;;;;;;;3.42;1.10;;;13.90;96.80;;;;;;4786754;29;20401;-85
2022/10/22 08:18:13;;;;;;;5.93;1.00;;;14.00;96.80;;;;;;4786873;29;20497;-85
2022/10/22 08:20:41;;;;;;;3.90;0.85;;;14.10;96.70;;;;;;4772058;29;20059;-88
2022/10/22 08:23:11;;;;;;;7.25;1.23;;;14.20;96.60;;;;;;4773223;29;20497;-87
2022/10/22 08:25:38;;;;;;;3.33;1.48;;;14.30;96.40;;;;;;4772095;29;20138;-85
2022/10/22 08:28:05;;;;;;;5.00;0.77;;;14.40;96.40;;;;;;4770943;29;20055;-86
2022/10/22 08:30:34;;;;;;;4.45;1.15;;;14.50;96.30;;;;;;4771608;30;20091;-86
2022/10/22 08:33:01;;;;;;;5.20;1.40;;;14.60;96.30;;;;;;4771486;29;20044;-85
2022/10/22 08:35:28;;;;;;;4.97;1.08;;;14.70;96.30;;;;;;4771307;29;20079;-86
2022/10/22 08:37:55;;;;;;;6.10;1.05;;;14.70;96.20;;;;;;4771494;29;20052;-86
2022/10/22 08:40:29;;;;;;;3.40;1.00;;;14.80;96.20;;;;;;4768629;29;20051;-86
2022/10/22 08:43:17;;;;;;;7.55;1.98;;;14.80;96.20;;;;;;4771334;29;20066;-87
2022/10/22 08:45:58;;;;;;;6.53;1.27;;;14.90;96.10;;;;;;4786673;29;20138;-87
2022/10/22 08:48:40;;;;;;;3.90;1.30;;;15.00;96.00;;;;;;4774535;30;20044;-87
2022/10/22 08:51:15;;;;;;;5.68;1.10;;;15.10;96.10;;;;;;4771706;29;20056;-86
2022/10/22 08:54:14;;;;;;;6.20;1.30;;;15.10;96.20;;;;;;4769804;30;20070;-87
2022/10/22 08:56:46;;;;;;;8.88;2.00;;;15.30;95.90;;;;;;4763466;30;20506;-87
2022/10/22 08:59:16;;;;;;;;;;;15.30;95.80;;;;;;4771761;30;20062;-87
2022/10/22 09:01:49;;;;;;;10.10;1.50;;;15.30;95.80;;;;;;4771824;29;19926;-87
2022/10/22 09:04:34;;;;;;;7.28;1.13;;;15.40;95.70;;;;;;4771475;29;20113;-87
2022/10/22 09:07:01;;;;;;;6.78;1.30;;;15.50;95.70;;;;;;4763834;30;20056;-88
2022/10/22 09:09:41;;;;;;;7.22;1.80;;;15.50;95.60;;;;;;4786937;29;20142;-87
2022/10/22 09:12:13;;;;;;;5.38;1.20;;;15.60;95.60;;;;;;4786388;29;20512;-87
2022/10/22 09:14:46;;;;;;;4.10;0.80;;;15.60;95.60;;;;;;4771259;29;20466;-87
2022/10/22 09:17:22;;;;;;;3.40;0.90;;;15.60;95.60;;;;;;4756464;30;20075;-87
2022/10/22 09:19:50;;;;;;;5.95;1.20;;;15.70;95.60;;;;;;4771074;29;20067;-94
2022/10/22 09:22:53;;;;;;;4.47;1.08;;;15.70;95.60;;;;;;4770131;29;20055;-83
2022/10/22 09:25:24;;;;;;;5.28;1.13;;;15.70;95.50;;;;;;4781026;30;20125;-84
2022/10/22 09:27:53;;;;;;;5.32;1.38;;;15.50;95.50;;;;;;4785365;30;20059;-84
2022/10/22 09:30:22;;;;;;;4.07;0.90;;;15.40;95.70;;;;;;4773141;29;20480;-84
2022/10/22 09:33:01;;;;;;;4.53;0.80;;;15.30;95.80;;;;;;4770452;30;20048;-85
2022/10/22 09:35:32;;;;;;;2.85;0.90;;;15.30;95.90;;;;;;4770117;29;20059;-83
2022/10/22 09:38:06;;;;;;;6.28;1.13;;;15.20;96.00;;;;;;4769094;29;20089;-82
2022/10/22 09:40:45;;;;;;;5.30;2.13;;;15.20;96.00;;;;;;4769926;30;20060;-85
2022/10/22 09:43:13;;;;;;;5.55;1.70;;;15.10;96.10;;;;;;4767618;30;20102;-85
2022/10/22 09:45:42;;;;;;;4.60;1.60;;;15.10;96.20;;;;;;4771374;29;20048;-84
2022/10/22 09:48:16;;;;;;;5.10;1.17;;;15.10;96.20;;;;;;4769673;29;20054;-82
2022/10/22 09:50:53;;;;;;;4.93;1.02;;;15.20;96.20;;;;;;4770006;29;20083;-84
2022/10/22 09:53:36;;;;;;;4.70;0.88;;;15.20;96.20;;;;;;4784797;29;20051;-84
2022/10/22 09:56:17;;;;;;;;;;;15.30;96.10;;;;;;4770347;29;20074;-81
2022/10/22 09:58:48;;;;;;;4.47;0.90;;;15.30;96.20;;;;;;4770109;29;19925;-84
2022/10/22 10:01:19;;;;;;;2.10;0.70;;;15.40;96.10;;;;;;4784882;30;20063;-84
2022/10/22 10:03:48;;;;;;;5.13;1.58;;;15.50;96.00;;;;;;4769837;29;20051;-83
2022/10/22 10:06:30;;;;;;;6.35;1.60;;;15.50;95.90;;;;;;4754675;30;20048;-83
2022/10/22 10:09:01;;;;;;;6.53;1.33;;;15.70;95.80;;;;;;4760685;30;20550;-82
2022/10/22 10:11:44;;;;;;;6.77;1.10;;;15.70;95.70;;;;;;4785034;29;20045;-83
2022/10/22 10:14:11;;;;;;;;;;;15.90;95.60;;;;;;4769905;29;20064;-83
2022/10/22 10:16:56;;;;;;;4.03;1.30;;;15.90;95.60;;;;;;4769188;30;19932;-83
2022/10/22 10:19:42;;;;;;;2.65;0.85;;;16.00;95.50;;;;;;4769364;29;20047;-83
2022/10/22 10:22:16;;;;;;;5.85;1.02;;;16.00;95.50;;;;;;4763580;30;20086;-83
2022/10/22 10:24:55;;;;;;;2.95;1.10;;;16.10;95.40;;;;;;4769126;29;20062;-83
2022/10/22 10:27:39;;;;;;;4.47;1.45;;;16.10;95.40;;;;;;4769211;29;20562;-82
2022/10/22 10:30:20;;;;;;;4.22;1.10;;;16.20;95.30;;;;;;4783976;29;20044;-82
2022/10/22 10:33:10;;;;;;;4.32;1.63;;;16.30;95.30;;;;;;4783676;29;20047;-83
2022/10/22 10:36:01;;;;;;;4.57;1.17;;;16.40;95.10;;;;;;4769274;29;20508;-82
2022/10/22 10:38:42;;;;;;;4.60;2.00;;;16.30;95.10;;;;;;4755203;30;20134;-82
2022/10/22 10:41:41;;;;;;;5.43;1.75;;;16.30;95.10;;;;;;4764100;29;20313;-83
2022/10/22 10:44:32;;;;;;;4.22;1.30;;;16.30;95.00;;;;;;4768923;30;20043;-81
2022/10/22 10:47:31;;;;;;;7.00;1.92;;;16.30;95.10;;;;;;4768049;30;20050;-82
2022/10/22 10:50:16;;;;;;;4.47;1.30;;;16.20;95.10;;;;;;4769421;29;20074;-83
2022/10/22 10:52:56;;;;;;;5.05;1.23;;;16.40;95.10;;;;;;4762874;30;20484;-82
2022/10/22 10:55:40;;;;;;;6.00;1.38;;;16.50;95.10;;;;;;4769000;30;20055;-83
2022/10/22 10:58:32;;;;;;;6.43;1.90;;;16.60;95.00;;;;;;4766132;29;20142;-82
2022/10/22 11:01:12;;;;;;;2.38;1.20;;;16.70;94.80;;;;;;4759008;29;20055;-82
2022/10/22 11:03:44;;;;;;;8.25;2.45;;;16.80;94.70;;;;;;4770041;29;20040;-82
2022/10/22 11:06:19;;;;;;;4.82;1.73;;;17.00;94.50;;;;;;4768884;30;20040;-82
2022/10/22 11:09:04;;;;;;;4.68;1.90;;;17.00;94.40;;;;;;4783621;30;20105;-88
2022/10/22 11:11:31;;;;;;;6.10;2.00;;;17.20;94.40;;;;;;4768880;29;20052;-86
2022/10/22 11:14:04;;;;;;;6.60;2.33;;;17.30;94.20;;;;;;4751538;30;20075;-86
2022/10/22 11:17:00;;;;;;;5.88;1.73;;;17.30;93.90;;;;;;4754197;30;20054;-86
2022/10/22 11:19:43;;;;;;;6.32;2.03;;;17.30;93.80;;;;;;4772072;29;20055;-89
2022/10/22 11:22:30;;;;;;;3.25;1.33;;;17.30;94.00;;;;;;4784214;29;20052;-87
2022/10/22 11:25:42;;;;;;;5.60;1.30;;;17.30;94.20;;;;;;4770980;29;20509;-84
2022/10/22 11:28:18;;;;;;;4.15;1.27;;;17.50;94.00;;;;;;4771387;29;20142;-88
2022/10/22 11:30:57;;;;;;;6.18;1.90;;;17.80;93.90;;;;;;4786651;29;20051;-89
2022/10/22 11:33:32;;;;;;;5.45;1.75;;;17.90;93.20;;;;;;4783536;29;20087;-83
2022/10/22 11:36:07;;;;;;;5.50;1.55;;;18.00;92.90;;;;;;4768542;30;20047;-87
2022/10/22 11:38:37;;;;;;;2.78;1.15;;;18.00;92.80;;;;;;4769176;29;20416;-85
2022/10/22 11:41:11;;;;;;;6.03;1.60;;;18.10;92.90;;;;;;4771341;29;20060;-85
2022/10/22 11:43:52;;;;;;;7.00;1.65;;;18.20;92.20;;;;;;4769409;30;20043;-84
2022/10/22 11:46:22;;;;;;;6.57;1.65;;;18.20;91.30;;;;;;4783156;29;20071;-87
2022/10/22 11:49:18;;;;;;;9.10;1.38;;;18.10;91.30;;;;;;4782854;29;20104;-85
2022/10/22 11:51:46;;;;;;;6.03;1.48;;;18.10;91.10;;;;;;4768196;30;20040;-85
2022/10/22 11:54:30;;;;;;;4.00;1.23;;;18.00;91.20;;;;;;4768364;29;20060;-85
2022/10/22 11:57:15;;;;;;;3.47;1.25;;;18.10;90.80;;;;;;4768220;29;20148;-85
2022/10/22 11:59:51;;;;;;;5.70;1.20;;;18.00;91.00;;;;;;4768107;29;20059;-85
2022/10/22 12:02:30;;;;;;;4.35;1.38;;;18.00;90.60;;;;;;4767387;30;20383;-85
2022/10/22 12:05:32;;;;;;;4.60;1.58;;;17.90;90.90;;;;;;4767934;29;20055;-85
2022/10/22 12:08:29;;;;;;;7.07;2.03;;;18.00;91.20;;;;;;4777861;29;20059;-85
2022/10/22 12:11:13;;;;;;;3.22;0.82;;;17.90;91.00;;;;;;4783178;30;20047;-86
2022/10/22 12:14:00;;;;;;;5.13;0.73;;;17.90;91.30;;;;;;4762904;30;20100;-86
2022/10/22 12:16:39;;;;;;;4.32;1.08;;;17.90;91.40;;;;;;4770274;30;20051;-87
2022/10/22 12:20:02;;;;;;;5.93;1.70;;;18.10;91.30;;;;;;4768691;29;20056;-86
2022/10/22 12:22:32;;;;;;;6.55;1.30;;;18.10;90.40;;;;;;4753408;30;20052;-85
2022/10/22 12:25:01;;;;;;;5.10;1.02;;;18.10;90.60;;;;;;4767635;29;20143;-85
2022/10/22 12:27:39;;;;;;;3.90;1.15;;;18.20;90.70;;;;;;4782239;29;20047;-85
2022/10/22 12:30:16;;;;;;;5.20;1.17;;;18.10;90.60;;;;;;4753179;30;20051;-87
2022/10/22 12:32:44;;;;;;;9.25;1.10;;;18.10;90.40;;;;;;4782023;29;20071;-85
2022/10/22 12:35:17;;;;;;;5.95;0.95;;;18.10;90.30;;;;;;4767989;29;20044;-83
2022/10/22 12:37:44;;;;;;;5.47;1.02;;;18.10;90.00;;;;;;4762410;30;20079;-83
2022/10/22 12:40:23;;;;;;;6.53;1.15;;;18.00;90.10;;;;;;4768261;30;20051;-84
2022/10/22 12:42:56;;;;;;;3.83;0.98;;;18.00;90.00;;;;;;4761710;29;20433;-83
2022/10/22 12:45:35;;;;;;;3.38;1.48;;;17.80;90.10;;;;;;4780119;29;20052;-84
2022/10/22 12:48:14;;;;;;;5.60;0.85;;;17.80;90.30;;;;;;4767539;29;20206;-84
2022/10/22 12:50:46;;;;;;;5.90;1.10;;;17.80;90.40;;;;;;4781708;29;20134;-83
2022/10/22 12:53:17;;;;;;;5.63;1.02;;;17.70;90.30;;;;;;4767081;29;20058;-83
2022/10/22 12:55:50;;;;;;;5.65;1.13;;;17.70;90.30;;;;;;4768470;30;20076;-83
2022/10/22 12:58:21;;;;;;;9.38;1.23;;;17.70;90.20;;;;;;4785820;29;20501;-85
2022/10/22 13:00:56;;;;;;;8.75;1.30;;;17.70;90.10;;;;;;4774502;29;20048;-84
2022/10/22 13:03:31;;;;;;;6.93;1.52;;;17.80;89.50;;;;;;4785927;29;20056;-82
2022/10/22 13:06:12;;;;;;;7.30;1.42;;;17.80;89.90;;;;;;4771901;30;20123;-83
2022/10/22 13:08:39;;;;;;;7.95;1.15;;;17.80;90.30;;;;;;4769029;29;20056;-83
2022/10/22 13:11:09;;;;;;;3.10;1.00;;;17.80;90.00;;;;;;4785635;29;20040;-82
2022/10/22 13:13:39;;;;;;;8.52;1.52;;;17.80;90.20;;;;;;4770808;29;20056;-84
2022/10/22 13:16:23;;;;;;;5.40;0.85;;;17.80;90.20;;;;;;4770693;30;20147;-85
2022/10/22 13:18:51;;;;;;;9.63;1.85;;;17.90;90.20;;;;;;4770945;30;20059;-85